sensor_id;sensor_type;location;lat;lon;timestamp;temperature;humidity
24436;DHT22;12616;52.470;13.436;2023-03-20T00:00:18;11.60;1.00
24436;DHT22;12616;52.470;13.436;2023-03-20T00:02:46;11.60;1.00
24436;DHT22;12616;52.470;13.436;2023-03-20T00:05:18;11.60;1.00
24436;DHT22;12616;52.470;13.436;2023-03-20T00:07:47;11.60;1.00
24436;DHT22;12616;52.470;13.436;2023-03-20T00:10:16;11.50;1.00
24436;DHT22;12616;52.470;13.436;2023-03-20T00:12:44;11.50;30.60
24436;DHT22;12616;52.470;13.436;2023-03-20T00:15:25;11.30;99.90
24436;DHT22;12616;52.470;13.436;2023-03-20T00:17:52;11.30;99.90
24436;DHT22;12616;52.470;13.436;2023-03-20T00:20:19;11.30;99.90
24436;DHT22;12616;52.470;13.436;2023-03-20T00:22:46;11.20;99.90
24436;DHT22;12616;52.470;13.436;2023-03-20T00:25:14;11.20;99.90
24436;DHT22;12616;52.470;13.436;2023-03-20T00:27:42;11.20;99.90
24436;DHT22;12616;52.470;13.436;2023-03-20T00:30:20;11.20;99.90
24436;DHT22;12616;52.470;13.436;2023-03-20T00:32:49;11.30;99.90
24436;DHT22;12616;52.470;13.436;2023-03-20T00:35:25;11.30;1.00
24436;DHT22;12616;52.470;13.436;2023-03-20T00:37:52;11.10;1.00
24436;DHT22;12616;52.470;13.436;2023-03-20T00:40:20;11.10;99.90
24436;DHT22;12616;52.470;13.436;2023-03-20T00:42:49;11.00;99.90
24436;DHT22;12616;52.470;13.436;2023-03-20T00:45:18;11.00;1.00
24436;DHT22;12616;52.470;13.436;2023-03-20T00:47:49;10.90;99.90
24436;DHT22;12616;52.470;13.436;2023-03-20T00:50:20;10.90;99.90
24436;DHT22;12616;52.470;13.436;2023-03-20T00:52:48;10.80;99.90
24436;DHT22;12616;52.470;13.436;2023-03-20T00:55:16;10.80;1.00
24436;DHT22;12616;52.470;13.436;2023-03-20T00:57:45;10.70;99.90
24436;DHT22;12616;52.470;13.436;2023-03-20T01:00:23;10.70;1.00
24436;DHT22;12616;52.470;13.436;2023-03-20T01:02:54;10.70;99.90
24436;DHT22;12616;52.470;13.436;2023-03-20T01:05:22;10.70;1.00
24436;DHT22;12616;52.470;13.436;2023-03-20T01:07:49;10.60;1.00
24436;DHT22;12616;52.470;13.436;2023-03-20T01:10:16;10.60;1.00
24436;DHT22;12616;52.470;13.436;2023-03-20T01:12:43;10.50;1.00
24436;DHT22;12616;52.470;13.436;2023-03-20T01:15:19;10.60;1.00
24436;DHT22;12616;52.470;13.436;2023-03-20T01:17:46;10.60;1.00
24436;DHT22;12616;52.470;13.436;2023-03-20T01:20:17;10.50;1.00
24436;DHT22;12616;52.470;13.436;2023-03-20T01:22:44;10.60;1.00
24436;DHT22;12616;52.470;13.436;2023-03-20T01:25:11;10.50;1.00
24436;DHT22;12616;52.470;13.436;2023-03-20T01:27:38;10.60;1.00
24436;DHT22;12616;52.470;13.436;2023-03-20T01:30:20;10.60;1.00
24436;DHT22;12616;52.470;13.436;2023-03-20T01:32:47;10.60;1.00
24436;DHT22;12616;52.470;13.436;2023-03-20T01:35:17;10.60;99.90
24436;DHT22;12616;52.470;13.436;2023-03-20T01:37:45;10.60;99.90
24436;DHT22;12616;52.470;13.436;2023-03-20T01:40:22;10.60;1.00
24436;DHT22;12616;52.470;13.436;2023-03-20T01:42:52;10.60;1.00
24436;DHT22;12616;52.470;13.436;2023-03-20T01:45:21;10.50;1.00
24436;DHT22;12616;52.470;13.436;2023-03-20T01:47:49;10.50;1.00
24436;DHT22;12616;52.470;13.436;2023-03-20T01:50:24;10.50;1.00
24436;DHT22;12616;52.470;13.436;2023-03-20T01:52:57;10.70;1.00
24436;DHT22;12616;52.470;13.436;2023-03-20T01:55:25;10.40;1.00
24436;DHT22;12616;52.470;13.436;2023-03-20T01:57:53;10.50;1.00
24436;DHT22;12616;52.470;13.436;2023-03-20T02:00:21;10.50;1.00
24436;DHT22;12616;52.470;13.436;2023-03-20T02:02:48;10.50;1.00
24436;DHT22;12616;52.470;13.436;2023-03-20T02:05:18;10.50;1.00
24436;DHT22;12616;52.470;13.436;2023-03-20T02:07:53;10.50;1.00
24436;DHT22;12616;52.470;13.436;2023-03-20T02:10:22;10.50;1.00
24436;DHT22;12616;52.470;13.436;2023-03-20T02:12:50;10.50;1.00
24436;DHT22;12616;52.470;13.436;2023-03-20T02:15:17;10.50;1.00
24436;DHT22;12616;52.470;13.436;2023-03-20T02:17:44;10.50;1.00
24436;DHT22;12616;52.470;13.436;2023-03-20T02:20:19;10.50;1.00
24436;DHT22;12616;52.470;13.436;2023-03-20T02:23:27;10.50;1.00
24436;DHT22;12616;52.470;13.436;2023-03-20T02:26:27;10.50;1.00
24436;DHT22;12616;52.470;13.436;2023-03-20T02:29:22;10.40;1.00
24436;DHT22;12616;52.470;13.436;2023-03-20T02:32:10;10.40;1.00
24436;DHT22;12616;52.470;13.436;2023-03-20T02:35:04;10.30;1.00
24436;DHT22;12616;52.470;13.436;2023-03-20T02:37:51;10.40;1.00
24436;DHT22;12616;52.470;13.436;2023-03-20T02:40:24;10.30;1.00
24436;DHT22;12616;52.470;13.436;2023-03-20T02:42:59;10.20;1.00
24436;DHT22;12616;52.470;13.436;2023-03-20T02:45:33;10.20;1.00
24436;DHT22;12616;52.470;13.436;2023-03-20T02:48:10;10.20;1.00
24436;DHT22;12616;52.470;13.436;2023-03-20T02:50:43;10.20;1.00
24436;DHT22;12616;52.470;13.436;2023-03-20T02:53:19;10.20;1.00
24436;DHT22;12616;52.470;13.436;2023-03-20T02:55:56;10.20;1.00
24436;DHT22;12616;52.470;13.436;2023-03-20T02:58:29;10.20;1.00
24436;DHT22;12616;52.470;13.436;2023-03-20T03:01:02;10.20;1.00
24436;DHT22;12616;52.470;13.436;2023-03-20T03:03:34;10.20;1.00
24436;DHT22;12616;52.470;13.436;2023-03-20T03:06:06;10.20;1.00
24436;DHT22;12616;52.470;13.436;2023-03-20T03:08:39;10.20;1.00
24436;DHT22;12616;52.470;13.436;2023-03-20T03:11:08;10.20;1.00
24436;DHT22;12616;52.470;13.436;2023-03-20T03:13:39;10.20;1.00
24436;DHT22;12616;52.470;13.436;2023-03-20T03:16:11;10.30;1.00
24436;DHT22;12616;52.470;13.436;2023-03-20T03:18:40;10.40;1.00
24436;DHT22;12616;52.470;13.436;2023-03-20T03:21:10;10.40;1.00
24436;DHT22;12616;52.470;13.436;2023-03-20T03:23:42;10.30;1.00
24436;DHT22;12616;52.470;13.436;2023-03-20T03:26:16;10.40;1.00
24436;DHT22;12616;52.470;13.436;2023-03-20T03:28:47;10.40;1.00
24436;DHT22;12616;52.470;13.436;2023-03-20T03:31:16;10.30;1.00
24436;DHT22;12616;52.470;13.436;2023-03-20T03:33:45;10.30;1.00
24436;DHT22;12616;52.470;13.436;2023-03-20T03:36:28;10.50;1.00
24436;DHT22;12616;52.470;13.436;2023-03-20T03:39:03;10.40;1.00
24436;DHT22;12616;52.470;13.436;2023-03-20T03:41:36;10.40;1.00
24436;DHT22;12616;52.470;13.436;2023-03-20T03:44:11;10.50;1.00
24436;DHT22;12616;52.470;13.436;2023-03-20T03:46:42;10.50;1.00
24436;DHT22;12616;52.470;13.436;2023-03-20T03:49:15;10.50;1.00
24436;DHT22;12616;52.470;13.436;2023-03-20T03:51:43;10.50;1.00
24436;DHT22;12616;52.470;13.436;2023-03-20T03:54:15;10.60;1.00
24436;DHT22;12616;52.470;13.436;2023-03-20T03:56:44;10.60;1.00
24436;DHT22;12616;52.470;13.436;2023-03-20T03:59:17;10.50;1.00
24436;DHT22;12616;52.470;13.436;2023-03-20T04:01:46;10.40;1.00
24436;DHT22;12616;52.470;13.436;2023-03-20T04:04:15;10.40;1.00
24436;DHT22;12616;52.470;13.436;2023-03-20T04:06:43;10.30;1.00
24436;DHT22;12616;52.470;13.436;2023-03-20T04:09:12;10.30;1.00
24436;DHT22;12616;52.470;13.436;2023-03-20T04:11:38;10.30;1.00
24436;DHT22;12616;52.470;13.436;2023-03-20T04:14:05;10.30;1.00
24436;DHT22;12616;52.470;13.436;2023-03-20T04:16:32;10.30;1.00
24436;DHT22;12616;52.470;13.436;2023-03-20T04:18:59;10.30;1.00
24436;DHT22;12616;52.470;13.436;2023-03-20T04:21:26;10.20;1.00
24436;DHT22;12616;52.470;13.436;2023-03-20T04:23:53;10.20;1.00
24436;DHT22;12616;52.470;13.436;2023-03-20T04:26:21;10.20;1.00
24436;DHT22;12616;52.470;13.436;2023-03-20T04:28:48;10.60;65.90
24436;DHT22;12616;52.470;13.436;2023-03-20T04:31:14;10.30;1.00
24436;DHT22;12616;52.470;13.436;2023-03-20T04:33:42;10.30;1.00
24436;DHT22;12616;52.470;13.436;2023-03-20T04:36:09;10.30;1.00
24436;DHT22;12616;52.470;13.436;2023-03-20T04:38:36;10.20;1.00
24436;DHT22;12616;52.470;13.436;2023-03-20T04:41:03;10.20;1.00
24436;DHT22;12616;52.470;13.436;2023-03-20T04:43:32;10.20;1.00
24436;DHT22;12616;52.470;13.436;2023-03-20T04:45:59;10.10;1.00
24436;DHT22;12616;52.470;13.436;2023-03-20T04:48:26;10.00;1.00
24436;DHT22;12616;52.470;13.436;2023-03-20T04:50:53;9.90;1.00
24436;DHT22;12616;52.470;13.436;2023-03-20T04:53:20;10.00;1.00
24436;DHT22;12616;52.470;13.436;2023-03-20T04:55:47;10.00;1.00
24436;DHT22;12616;52.470;13.436;2023-03-20T04:58:15;10.00;1.00
24436;DHT22;12616;52.470;13.436;2023-03-20T05:00:44;10.00;1.00
24436;DHT22;12616;52.470;13.436;2023-03-20T05:03:10;10.10;2.90
24436;DHT22;12616;52.470;13.436;2023-03-20T05:05:37;10.10;3.80
24436;DHT22;12616;52.470;13.436;2023-03-20T05:08:04;10.10;15.50
24436;DHT22;12616;52.470;13.436;2023-03-20T05:10:31;10.10;1.00
24436;DHT22;12616;52.470;13.436;2023-03-20T05:12:58;10.20;19.60
24436;DHT22;12616;52.470;13.436;2023-03-20T05:15:25;10.30;94.80
24436;DHT22;12616;52.470;13.436;2023-03-20T05:17:53;10.20;1.00
24436;DHT22;12616;52.470;13.436;2023-03-20T05:20:20;10.20;2.10
24436;DHT22;12616;52.470;13.436;2023-03-20T05:22:48;10.20;7.80
24436;DHT22;12616;52.470;13.436;2023-03-20T05:25:16;10.20;10.80
24436;DHT22;12616;52.470;13.436;2023-03-20T05:27:43;10.20;11.80
24436;DHT22;12616;52.470;13.436;2023-03-20T05:30:11;10.30;30.00
24436;DHT22;12616;52.470;13.436;2023-03-20T05:32:38;10.30;33.40
24436;DHT22;12616;52.470;13.436;2023-03-20T05:35:08;10.20;99.90
24436;DHT22;12616;52.470;13.436;2023-03-20T05:37:35;10.30;31.30
24436;DHT22;12616;52.470;13.436;2023-03-20T05:40:02;10.30;39.30
24436;DHT22;12616;52.470;13.436;2023-03-20T05:42:29;10.40;39.80
24436;DHT22;12616;52.470;13.436;2023-03-20T05:44:55;10.40;37.30
24436;DHT22;12616;52.470;13.436;2023-03-20T05:47:22;10.30;45.40
24436;DHT22;12616;52.470;13.436;2023-03-20T05:49:49;10.40;57.40
24436;DHT22;12616;52.470;13.436;2023-03-20T05:52:17;10.40;53.70
24436;DHT22;12616;52.470;13.436;2023-03-20T05:54:44;10.00;99.90
24436;DHT22;12616;52.470;13.436;2023-03-20T05:57:12;10.30;67.20
24436;DHT22;12616;52.470;13.436;2023-03-20T05:59:38;10.30;54.70
24436;DHT22;12616;52.470;13.436;2023-03-20T06:02:05;10.30;55.10
24436;DHT22;12616;52.470;13.436;2023-03-20T06:04:32;10.10;99.90
24436;DHT22;12616;52.470;13.436;2023-03-20T06:06:59;10.20;98.10
24436;DHT22;12616;52.470;13.436;2023-03-20T06:09:27;10.30;50.30
24436;DHT22;12616;52.470;13.436;2023-03-20T06:11:54;10.30;86.70
24436;DHT22;12616;52.470;13.436;2023-03-20T06:14:21;10.40;38.40
24436;DHT22;12616;52.470;13.436;2023-03-20T06:16:48;10.50;93.60
24436;DHT22;12616;52.470;13.436;2023-03-20T06:19:15;10.60;91.90
24436;DHT22;12616;52.470;13.436;2023-03-20T06:21:42;10.60;72.40
24436;DHT22;12616;52.470;13.436;2023-03-20T06:24:09;10.60;74.40
24436;DHT22;12616;52.470;13.436;2023-03-20T06:26:37;10.70;92.00
24436;DHT22;12616;52.470;13.436;2023-03-20T06:29:04;10.70;67.10
24436;DHT22;12616;52.470;13.436;2023-03-20T06:31:31;10.50;43.90
24436;DHT22;12616;52.470;13.436;2023-03-20T06:33:57;10.60;71.90
24436;DHT22;12616;52.470;13.436;2023-03-20T06:36:24;10.60;77.40
24436;DHT22;12616;52.470;13.436;2023-03-20T06:38:51;10.20;99.90
24436;DHT22;12616;52.470;13.436;2023-03-20T06:41:18;10.40;64.00
24436;DHT22;12616;52.470;13.436;2023-03-20T06:43:46;10.40;36.30
24436;DHT22;12616;52.470;13.436;2023-03-20T06:46:13;10.20;33.40
24436;DHT22;12616;52.470;13.436;2023-03-20T06:48:40;10.00;35.60
24436;DHT22;12616;52.470;13.436;2023-03-20T06:51:07;10.10;69.40
24436;DHT22;12616;52.470;13.436;2023-03-20T06:53:34;10.10;87.70
24436;DHT22;12616;52.470;13.436;2023-03-20T06:56:01;10.20;99.90
24436;DHT22;12616;52.470;13.436;2023-03-20T06:58:27;10.20;98.80
24436;DHT22;12616;52.470;13.436;2023-03-20T07:00:56;10.10;99.90
24436;DHT22;12616;52.470;13.436;2023-03-20T07:03:23;10.10;99.90
24436;DHT22;12616;52.470;13.436;2023-03-20T07:05:49;9.90;99.90
24436;DHT22;12616;52.470;13.436;2023-03-20T07:08:16;9.90;97.90
24436;DHT22;12616;52.470;13.436;2023-03-20T07:10:43;9.90;99.90
24436;DHT22;12616;52.470;13.436;2023-03-20T07:13:10;9.80;99.90
24436;DHT22;12616;52.470;13.436;2023-03-20T07:15:37;9.90;99.90
24436;DHT22;12616;52.470;13.436;2023-03-20T07:18:05;9.80;99.90
24436;DHT22;12616;52.470;13.436;2023-03-20T07:20:32;9.90;99.90
24436;DHT22;12616;52.470;13.436;2023-03-20T07:22:59;9.70;99.90
24436;DHT22;12616;52.470;13.436;2023-03-20T07:25:26;9.30;99.90
24436;DHT22;12616;52.470;13.436;2023-03-20T07:27:53;9.50;99.90
24436;DHT22;12616;52.470;13.436;2023-03-20T07:30:20;9.40;99.90
24436;DHT22;12616;52.470;13.436;2023-03-20T07:32:47;9.40;99.90
24436;DHT22;12616;52.470;13.436;2023-03-20T07:35:15;9.60;99.90
24436;DHT22;12616;52.470;13.436;2023-03-20T07:37:42;9.70;99.90
24436;DHT22;12616;52.470;13.436;2023-03-20T07:40:10;9.70;99.90
24436;DHT22;12616;52.470;13.436;2023-03-20T07:42:37;9.80;99.90
24436;DHT22;12616;52.470;13.436;2023-03-20T07:45:04;9.70;99.90
24436;DHT22;12616;52.470;13.436;2023-03-20T07:47:32;9.70;98.20
24436;DHT22;12616;52.470;13.436;2023-03-20T07:49:59;9.80;99.90
24436;DHT22;12616;52.470;13.436;2023-03-20T07:52:27;9.80;99.90
24436;DHT22;12616;52.470;13.436;2023-03-20T07:54:54;9.80;99.90
24436;DHT22;12616;52.470;13.436;2023-03-20T07:57:20;9.40;99.90
24436;DHT22;12616;52.470;13.436;2023-03-20T07:59:47;9.40;90.50
24436;DHT22;12616;52.470;13.436;2023-03-20T08:02:14;9.30;63.00
24436;DHT22;12616;52.470;13.436;2023-03-20T08:04:42;9.20;99.90
24436;DHT22;12616;52.470;13.436;2023-03-20T08:07:09;9.30;57.60
24436;DHT22;12616;52.470;13.436;2023-03-20T08:09:38;9.40;92.20
24436;DHT22;12616;52.470;13.436;2023-03-20T08:12:05;9.50;83.40
24436;DHT22;12616;52.470;13.436;2023-03-20T08:14:32;9.70;99.90
24436;DHT22;12616;52.470;13.436;2023-03-20T08:17:00;9.80;90.40
24436;DHT22;12616;52.470;13.436;2023-03-20T08:19:26;9.60;1.00
24436;DHT22;12616;52.470;13.436;2023-03-20T08:21:53;9.70;51.70
24436;DHT22;12616;52.470;13.436;2023-03-20T08:24:20;9.90;19.60
24436;DHT22;12616;52.470;13.436;2023-03-20T08:26:49;9.80;1.00
24436;DHT22;12616;52.470;13.436;2023-03-20T08:29:16;10.10;25.60
24436;DHT22;12616;52.470;13.436;2023-03-20T08:31:43;9.90;1.00
24436;DHT22;12616;52.470;13.436;2023-03-20T08:34:10;10.00;1.00
24436;DHT22;12616;52.470;13.436;2023-03-20T08:36:37;10.10;1.00
24436;DHT22;12616;52.470;13.436;2023-03-20T08:39:05;10.00;1.00
24436;DHT22;12616;52.470;13.436;2023-03-20T08:41:33;10.00;1.00
24436;DHT22;12616;52.470;13.436;2023-03-20T08:44:01;9.90;1.00
24436;DHT22;12616;52.470;13.436;2023-03-20T08:46:28;10.10;1.00
24436;DHT22;12616;52.470;13.436;2023-03-20T08:48:54;10.20;99.90
24436;DHT22;12616;52.470;13.436;2023-03-20T08:51:23;10.10;1.00
24436;DHT22;12616;52.470;13.436;2023-03-20T08:53:50;10.70;99.90
24436;DHT22;12616;52.470;13.436;2023-03-20T08:56:17;10.80;1.00
24436;DHT22;12616;52.470;13.436;2023-03-20T08:58:44;10.80;99.90
24436;DHT22;12616;52.470;13.436;2023-03-20T09:01:12;11.10;1.00
24436;DHT22;12616;52.470;13.436;2023-03-20T09:03:39;11.20;1.00
24436;DHT22;12616;52.470;13.436;2023-03-20T09:06:08;11.30;99.90
24436;DHT22;12616;52.470;13.436;2023-03-20T09:08:35;11.50;99.90
24436;DHT22;12616;52.470;13.436;2023-03-20T09:11:03;11.50;99.90
24436;DHT22;12616;52.470;13.436;2023-03-20T09:13:30;11.80;1.00
24436;DHT22;12616;52.470;13.436;2023-03-20T09:15:57;11.70;99.90
24436;DHT22;12616;52.470;13.436;2023-03-20T09:18:25;11.70;1.00
24436;DHT22;12616;52.470;13.436;2023-03-20T09:20:52;11.90;1.00
24436;DHT22;12616;52.470;13.436;2023-03-20T09:23:21;12.10;1.00
24436;DHT22;12616;52.470;13.436;2023-03-20T09:25:48;12.10;99.90
24436;DHT22;12616;52.470;13.436;2023-03-20T09:28:14;12.20;1.00
24436;DHT22;12616;52.470;13.436;2023-03-20T09:30:41;12.30;27.40
24436;DHT22;12616;52.470;13.436;2023-03-20T09:33:08;12.20;1.00
24436;DHT22;12616;52.470;13.436;2023-03-20T09:35:37;12.00;1.00
24436;DHT22;12616;52.470;13.436;2023-03-20T09:38:04;12.00;99.90
24436;DHT22;12616;52.470;13.436;2023-03-20T09:40:39;11.90;1.00
24436;DHT22;12616;52.470;13.436;2023-03-20T09:43:18;12.00;1.00
24436;DHT22;12616;52.470;13.436;2023-03-20T09:45:52;12.20;12.70
24436;DHT22;12616;52.470;13.436;2023-03-20T09:48:28;12.30;99.90
24436;DHT22;12616;52.470;13.436;2023-03-20T09:51:03;11.90;99.90
24436;DHT22;12616;52.470;13.436;2023-03-20T09:53:35;12.10;1.00
24436;DHT22;12616;52.470;13.436;2023-03-20T09:56:04;12.20;99.90
24436;DHT22;12616;52.470;13.436;2023-03-20T09:58:36;12.30;1.00
24436;DHT22;12616;52.470;13.436;2023-03-20T10:01:05;12.10;99.90
24436;DHT22;12616;52.470;13.436;2023-03-20T10:03:40;12.30;99.90
24436;DHT22;12616;52.470;13.436;2023-03-20T10:06:14;12.30;99.90
24436;DHT22;12616;52.470;13.436;2023-03-20T10:08:42;12.00;99.90
24436;DHT22;12616;52.470;13.436;2023-03-20T10:11:32;11.90;1.00
24436;DHT22;12616;52.470;13.436;2023-03-20T10:14:10;11.90;1.00
24436;DHT22;12616;52.470;13.436;2023-03-20T10:16:53;11.80;43.00
24436;DHT22;12616;52.470;13.436;2023-03-20T10:19:27;11.80;1.00
24436;DHT22;12616;52.470;13.436;2023-03-20T10:22:00;12.00;1.00
24436;DHT22;12616;52.470;13.436;2023-03-20T10:24:29;11.90;1.00
24436;DHT22;12616;52.470;13.436;2023-03-20T10:27:01;11.80;1.00
24436;DHT22;12616;52.470;13.436;2023-03-20T10:29:40;11.70;1.00
24436;DHT22;12616;52.470;13.436;2023-03-20T10:32:13;11.90;99.90
24436;DHT22;12616;52.470;13.436;2023-03-20T10:34:53;11.80;1.00
24436;DHT22;12616;52.470;13.436;2023-03-20T10:37:42;11.70;1.00
24436;DHT22;12616;52.470;13.436;2023-03-20T10:40:26;11.60;1.00
24436;DHT22;12616;52.470;13.436;2023-03-20T10:42:58;11.50;1.00
24436;DHT22;12616;52.470;13.436;2023-03-20T10:45:32;11.60;1.00
24436;DHT22;12616;52.470;13.436;2023-03-20T10:48:05;11.70;1.00
24436;DHT22;12616;52.470;13.436;2023-03-20T10:50:38;11.70;99.90
24436;DHT22;12616;52.470;13.436;2023-03-20T10:53:09;11.80;99.90
24436;DHT22;12616;52.470;13.436;2023-03-20T10:55:45;11.70;99.90
24436;DHT22;12616;52.470;13.436;2023-03-20T10:58:16;11.60;99.90
24436;DHT22;12616;52.470;13.436;2023-03-20T11:00:44;11.50;1.00
24436;DHT22;12616;52.470;13.436;2023-03-20T11:03:19;11.60;1.00
24436;DHT22;12616;52.470;13.436;2023-03-20T11:05:48;11.70;99.90
24436;DHT22;12616;52.470;13.436;2023-03-20T11:08:21;11.90;1.00
24436;DHT22;12616;52.470;13.436;2023-03-20T11:10:57;11.70;99.90
24436;DHT22;12616;52.470;13.436;2023-03-20T11:13:26;11.90;1.00
24436;DHT22;12616;52.470;13.436;2023-03-20T11:15:56;11.80;99.90
24436;DHT22;12616;52.470;13.436;2023-03-20T11:18:24;12.20;99.90
24436;DHT22;12616;52.470;13.436;2023-03-20T11:20:53;11.90;99.90
24436;DHT22;12616;52.470;13.436;2023-03-20T11:23:26;12.10;1.00
24436;DHT22;12616;52.470;13.436;2023-03-20T11:25:57;12.10;99.90
24436;DHT22;12616;52.470;13.436;2023-03-20T11:28:32;12.10;99.90
24436;DHT22;12616;52.470;13.436;2023-03-20T11:31:02;12.30;99.90
24436;DHT22;12616;52.470;13.436;2023-03-20T11:33:31;12.60;99.90
24436;DHT22;12616;52.470;13.436;2023-03-20T11:35:59;12.20;6.60
24436;DHT22;12616;52.470;13.436;2023-03-20T11:38:29;12.20;79.10
24436;DHT22;12616;52.470;13.436;2023-03-20T11:40:56;12.40;50.70
24436;DHT22;12616;52.470;13.436;2023-03-20T11:43:24;12.40;99.90
24436;DHT22;12616;52.470;13.436;2023-03-20T11:45:55;12.40;58.50
24436;DHT22;12616;52.470;13.436;2023-03-20T11:48:24;12.40;7.30
24436;DHT22;12616;52.470;13.436;2023-03-20T11:50:58;12.40;1.00
24436;DHT22;12616;52.470;13.436;2023-03-20T11:53:30;12.60;1.00
24436;DHT22;12616;52.470;13.436;2023-03-20T11:56:03;12.50;1.00
24436;DHT22;12616;52.470;13.436;2023-03-20T11:58:31;12.60;12.10
24436;DHT22;12616;52.470;13.436;2023-03-20T12:01:00;12.60;99.90
24436;DHT22;12616;52.470;13.436;2023-03-20T12:03:49;12.60;76.10
24436;DHT22;12616;52.470;13.436;2023-03-20T12:06:21;12.60;99.90
24436;DHT22;12616;52.470;13.436;2023-03-20T12:08:54;12.30;1.00
24436;DHT22;12616;52.470;13.436;2023-03-20T12:11:44;12.20;12.20
24436;DHT22;12616;52.470;13.436;2023-03-20T12:14:21;12.00;99.90
24436;DHT22;12616;52.470;13.436;2023-03-20T12:16:52;12.10;99.90
24436;DHT22;12616;52.470;13.436;2023-03-20T12:19:26;12.20;86.00
24436;DHT22;12616;52.470;13.436;2023-03-20T12:22:00;12.50;99.90
24436;DHT22;12616;52.470;13.436;2023-03-20T12:24:36;12.20;99.90
24436;DHT22;12616;52.470;13.436;2023-03-20T12:27:16;12.30;30.20
24436;DHT22;12616;52.470;13.436;2023-03-20T12:29:48;12.70;99.90
24436;DHT22;12616;52.470;13.436;2023-03-20T12:32:23;12.70;99.90
24436;DHT22;12616;52.470;13.436;2023-03-20T12:34:55;12.70;1.00
24436;DHT22;12616;52.470;13.436;2023-03-20T12:37:23;12.90;1.00
24436;DHT22;12616;52.470;13.436;2023-03-20T12:39:54;13.00;1.00
24436;DHT22;12616;52.470;13.436;2023-03-20T12:42:34;13.00;1.00
24436;DHT22;12616;52.470;13.436;2023-03-20T12:45:08;12.90;1.00
24436;DHT22;12616;52.470;13.436;2023-03-20T12:48:05;12.80;1.00
24436;DHT22;12616;52.470;13.436;2023-03-20T12:50:34;12.70;1.00
24436;DHT22;12616;52.470;13.436;2023-03-20T12:53:13;12.50;1.00
24436;DHT22;12616;52.470;13.436;2023-03-20T12:55:54;12.40;1.00
24436;DHT22;12616;52.470;13.436;2023-03-20T12:58:30;12.20;1.00
24436;DHT22;12616;52.470;13.436;2023-03-20T13:01:03;12.20;1.00
24436;DHT22;12616;52.470;13.436;2023-03-20T13:06:31;12.20;1.00
24436;DHT22;12616;52.470;13.436;2023-03-20T13:09:20;12.30;1.00
24436;DHT22;12616;52.470;13.436;2023-03-20T13:11:56;12.40;41.50
24436;DHT22;12616;52.470;13.436;2023-03-20T13:14:30;12.30;1.00
24436;DHT22;12616;52.470;13.436;2023-03-20T13:17:04;12.30;1.00
24436;DHT22;12616;52.470;13.436;2023-03-20T13:19:42;12.30;1.00
24436;DHT22;12616;52.470;13.436;2023-03-20T13:22:15;12.30;1.00
24436;DHT22;12616;52.470;13.436;2023-03-20T13:24:47;12.20;99.90
24436;DHT22;12616;52.470;13.436;2023-03-20T13:27:26;12.40;99.90
24436;DHT22;12616;52.470;13.436;2023-03-20T13:30:00;12.40;99.90
24436;DHT22;12616;52.470;13.436;2023-03-20T13:32:38;12.30;1.00
24436;DHT22;12616;52.470;13.436;2023-03-20T13:35:29;12.30;1.00
24436;DHT22;12616;52.470;13.436;2023-03-20T13:38:09;12.40;1.00
24436;DHT22;12616;52.470;13.436;2023-03-20T13:40:39;12.50;1.00
24436;DHT22;12616;52.470;13.436;2023-03-20T13:43:19;12.50;15.00
24436;DHT22;12616;52.470;13.436;2023-03-20T13:45:49;12.70;16.70
24436;DHT22;12616;52.470;13.436;2023-03-20T13:48:25;12.70;1.00
24436;DHT22;12616;52.470;13.436;2023-03-20T13:50:58;12.90;1.00
24436;DHT22;12616;52.470;13.436;2023-03-20T13:53:30;12.80;1.00
24436;DHT22;12616;52.470;13.436;2023-03-20T13:56:06;13.40;1.00
24436;DHT22;12616;52.470;13.436;2023-03-20T13:58:47;13.10;1.00
24436;DHT22;12616;52.470;13.436;2023-03-20T14:01:20;12.30;99.90
24436;DHT22;12616;52.470;13.436;2023-03-20T14:03:50;12.70;1.00
24436;DHT22;12616;52.470;13.436;2023-03-20T14:06:47;12.00;99.90
24436;DHT22;12616;52.470;13.436;2023-03-20T14:09:31;12.20;99.90
24436;DHT22;12616;52.470;13.436;2023-03-20T14:12:02;12.30;99.90
24436;DHT22;12616;52.470;13.436;2023-03-20T14:14:33;12.50;99.90
24436;DHT22;12616;52.470;13.436;2023-03-20T14:17:12;12.50;88.50
24436;DHT22;12616;52.470;13.436;2023-03-20T14:19:40;12.50;99.90
24436;DHT22;12616;52.470;13.436;2023-03-20T14:22:14;12.50;99.90
24436;DHT22;12616;52.470;13.436;2023-03-20T14:24:47;12.10;99.90
24436;DHT22;12616;52.470;13.436;2023-03-20T14:27:16;12.10;73.80
24436;DHT22;12616;52.470;13.436;2023-03-20T14:29:45;12.00;99.90
24436;DHT22;12616;52.470;13.436;2023-03-20T14:32:30;12.10;99.90
24436;DHT22;12616;52.470;13.436;2023-03-20T14:35:01;11.90;99.90
24436;DHT22;12616;52.470;13.436;2023-03-20T14:40:42;12.00;99.90
24436;DHT22;12616;52.470;13.436;2023-03-20T14:43:18;11.70;99.90
24436;DHT22;12616;52.470;13.436;2023-03-20T14:45:53;11.90;99.90
24436;DHT22;12616;52.470;13.436;2023-03-20T14:48:29;11.90;99.90
24436;DHT22;12616;52.470;13.436;2023-03-20T14:51:16;11.90;99.90
24436;DHT22;12616;52.470;13.436;2023-03-20T14:53:49;11.90;99.90
24436;DHT22;12616;52.470;13.436;2023-03-20T14:56:27;11.90;99.90
24436;DHT22;12616;52.470;13.436;2023-03-20T14:58:56;11.90;99.90
24436;DHT22;12616;52.470;13.436;2023-03-20T15:01:33;12.00;1.00
24436;DHT22;12616;52.470;13.436;2023-03-20T15:04:08;12.10;1.00
24436;DHT22;12616;52.470;13.436;2023-03-20T15:06:44;11.90;99.90
24436;DHT22;12616;52.470;13.436;2023-03-20T15:09:11;11.80;99.90
24436;DHT22;12616;52.470;13.436;2023-03-20T15:11:39;11.70;99.90
24436;DHT22;12616;52.470;13.436;2023-03-20T15:14:09;11.60;99.90
24436;DHT22;12616;52.470;13.436;2023-03-20T15:16:38;11.60;99.90
24436;DHT22;12616;52.470;13.436;2023-03-20T15:19:14;11.70;1.00
24436;DHT22;12616;52.470;13.436;2023-03-20T15:21:45;11.60;99.90
24436;DHT22;12616;52.470;13.436;2023-03-20T15:24:19;11.70;99.90
24436;DHT22;12616;52.470;13.436;2023-03-20T15:26:51;11.80;1.00
24436;DHT22;12616;52.470;13.436;2023-03-20T15:29:21;11.70;1.00
24436;DHT22;12616;52.470;13.436;2023-03-20T15:31:55;12.20;1.00
24436;DHT22;12616;52.470;13.436;2023-03-20T15:34:26;11.80;99.90
24436;DHT22;12616;52.470;13.436;2023-03-20T15:36:55;11.70;99.90
24436;DHT22;12616;52.470;13.436;2023-03-20T15:39:24;11.70;99.90
24436;DHT22;12616;52.470;13.436;2023-03-20T15:41:53;11.70;99.90
24436;DHT22;12616;52.470;13.436;2023-03-20T15:44:23;12.00;1.00
24436;DHT22;12616;52.470;13.436;2023-03-20T15:46:55;11.80;1.00
24436;DHT22;12616;52.470;13.436;2023-03-20T15:49:24;11.80;99.90
24436;DHT22;12616;52.470;13.436;2023-03-20T15:51:52;11.80;1.00
24436;DHT22;12616;52.470;13.436;2023-03-20T15:54:20;11.60;1.00